sensor_id;sensor_type;location;lat;lon;timestamp;P1;durP1;ratioP1;P2;durP2;ratioP2
22268;SDS011;11303;50.772;19.670;2024-02-21T00:01:55;15.10;;;6.45;;
22268;SDS011;11303;50.772;19.670;2024-02-21T00:03:57;16.95;;;6.68;;
22268;SDS011;11303;50.772;19.670;2024-02-21T00:05:58;26.80;;;7.60;;
22268;SDS011;11303;50.772;19.670;2024-02-21T00:08:00;24.35;;;7.03;;
22268;SDS011;11303;50.772;19.670;2024-02-21T00:10:02;22.95;;;7.35;;
22268;SDS011;11303;50.772;19.670;2024-02-21T00:12:04;19.08;;;6.30;;
22268;SDS011;11303;50.772;19.670;2024-02-21T00:14:06;17.80;;;5.35;;
22268;SDS011;11303;50.772;19.670;2024-02-21T00:16:08;20.83;;;5.97;;
22268;SDS011;11303;50.772;19.670;2024-02-21T00:18:09;17.77;;;6.95;;
22268;SDS011;11303;50.772;19.670;2024-02-21T00:20:12;16.92;;;6.00;;
22268;SDS011;11303;50.772;19.670;2024-02-21T00:22:14;22.92;;;6.85;;
22268;SDS011;11303;50.772;19.670;2024-02-21T00:24:16;18.65;;;6.43;;
22268;SDS011;11303;50.772;19.670;2024-02-21T00:26:17;18.42;;;5.75;;
22268;SDS011;11303;50.772;19.670;2024-02-21T00:28:19;19.17;;;6.00;;
22268;SDS011;11303;50.772;19.670;2024-02-21T00:30:21;16.25;;;6.72;;
22268;SDS011;11303;50.772;19.670;2024-02-21T00:32:23;19.70;;;6.47;;
22268;SDS011;11303;50.772;19.670;2024-02-21T00:34:24;18.13;;;7.03;;
22268;SDS011;11303;50.772;19.670;2024-02-21T00:36:26;14.27;;;6.30;;
22268;SDS011;11303;50.772;19.670;2024-02-21T00:38:28;14.85;;;6.47;;
22268;SDS011;11303;50.772;19.670;2024-02-21T00:40:30;24.77;;;7.07;;
22268;SDS011;11303;50.772;19.670;2024-02-21T00:42:32;19.13;;;7.18;;
22268;SDS011;11303;50.772;19.670;2024-02-21T00:44:33;20.17;;;7.47;;
22268;SDS011;11303;50.772;19.670;2024-02-21T00:46:35;18.60;;;7.32;;
22268;SDS011;11303;50.772;19.670;2024-02-21T00:48:37;18.08;;;6.35;;
22268;SDS011;11303;50.772;19.670;2024-02-21T00:50:38;20.30;;;6.80;;
22268;SDS011;11303;50.772;19.670;2024-02-21T00:52:40;18.95;;;7.13;;
22268;SDS011;11303;50.772;19.670;2024-02-21T00:54:42;18.77;;;6.15;;
22268;SDS011;11303;50.772;19.670;2024-02-21T00:56:53;19.27;;;6.47;;
22268;SDS011;11303;50.772;19.670;2024-02-21T00:58:55;20.70;;;6.28;;
22268;SDS011;11303;50.772;19.670;2024-02-21T01:00:57;25.90;;;7.45;;
22268;SDS011;11303;50.772;19.670;2024-02-21T01:02:58;19.75;;;6.38;;
22268;SDS011;11303;50.772;19.670;2024-02-21T01:05:01;20.52;;;6.45;;
22268;SDS011;11303;50.772;19.670;2024-02-21T01:07:04;18.05;;;5.93;;
22268;SDS011;11303;50.772;19.670;2024-02-21T01:09:05;12.82;;;6.13;;
22268;SDS011;11303;50.772;19.670;2024-02-21T01:11:07;16.63;;;6.65;;
22268;SDS011;11303;50.772;19.670;2024-02-21T01:13:09;16.10;;;5.70;;
22268;SDS011;11303;50.772;19.670;2024-02-21T01:15:10;12.43;;;5.80;;
22268;SDS011;11303;50.772;19.670;2024-02-21T01:17:13;20.08;;;7.35;;
22268;SDS011;11303;50.772;19.670;2024-02-21T01:19:14;16.98;;;5.65;;
22268;SDS011;11303;50.772;19.670;2024-02-21T01:21:16;20.75;;;5.35;;
22268;SDS011;11303;50.772;19.670;2024-02-21T01:23:17;11.13;;;4.75;;
22268;SDS011;11303;50.772;19.670;2024-02-21T01:25:19;24.98;;;5.60;;
22268;SDS011;11303;50.772;19.670;2024-02-21T01:27:20;17.75;;;5.00;;
22268;SDS011;11303;50.772;19.670;2024-02-21T01:29:22;16.15;;;5.10;;
22268;SDS011;11303;50.772;19.670;2024-02-21T01:31:24;18.30;;;4.88;;
22268;SDS011;11303;50.772;19.670;2024-02-21T01:33:25;14.07;;;4.60;;
22268;SDS011;11303;50.772;19.670;2024-02-21T01:35:27;18.65;;;5.85;;
22268;SDS011;11303;50.772;19.670;2024-02-21T01:37:29;15.63;;;5.55;;
22268;SDS011;11303;50.772;19.670;2024-02-21T01:39:30;21.55;;;5.32;;
22268;SDS011;11303;50.772;19.670;2024-02-21T01:41:32;16.55;;;4.35;;
22268;SDS011;11303;50.772;19.670;2024-02-21T01:43:33;17.77;;;5.28;;
22268;SDS011;11303;50.772;19.670;2024-02-21T01:45:35;14.63;;;5.20;;
22268;SDS011;11303;50.772;19.670;2024-02-21T01:47:37;17.55;;;5.50;;
22268;SDS011;11303;50.772;19.670;2024-02-21T01:49:39;22.35;;;6.40;;
22268;SDS011;11303;50.772;19.670;2024-02-21T01:51:42;23.55;;;6.00;;
22268;SDS011;11303;50.772;19.670;2024-02-21T01:53:44;18.67;;;6.68;;
22268;SDS011;11303;50.772;19.670;2024-02-21T01:55:47;17.45;;;6.78;;
22268;SDS011;11303;50.772;19.670;2024-02-21T01:57:49;19.23;;;7.07;;
22268;SDS011;11303;50.772;19.670;2024-02-21T01:59:50;22.75;;;7.22;;
22268;SDS011;11303;50.772;19.670;2024-02-21T02:01:52;31.83;;;8.45;;
22268;SDS011;11303;50.772;19.670;2024-02-21T02:03:56;23.63;;;8.20;;
22268;SDS011;11303;50.772;19.670;2024-02-21T02:06:00;19.50;;;7.65;;
22268;SDS011;11303;50.772;19.670;2024-02-21T02:08:01;26.00;;;8.25;;
22268;SDS011;11303;50.772;19.670;2024-02-21T02:10:03;24.45;;;8.25;;
22268;SDS011;11303;50.772;19.670;2024-02-21T02:12:05;22.75;;;8.77;;
22268;SDS011;11303;50.772;19.670;2024-02-21T02:14:07;24.00;;;8.55;;
22268;SDS011;11303;50.772;19.670;2024-02-21T02:16:08;23.50;;;8.68;;
22268;SDS011;11303;50.772;19.670;2024-02-21T02:18:10;20.73;;;8.95;;
22268;SDS011;11303;50.772;19.670;2024-02-21T02:20:13;28.17;;;8.85;;
22268;SDS011;11303;50.772;19.670;2024-02-21T02:22:16;24.05;;;9.98;;
22268;SDS011;11303;50.772;19.670;2024-02-21T02:24:24;20.55;;;9.32;;
22268;SDS011;11303;50.772;19.670;2024-02-21T02:26:27;24.38;;;9.93;;
22268;SDS011;11303;50.772;19.670;2024-02-21T02:28:28;25.23;;;9.65;;
22268;SDS011;11303;50.772;19.670;2024-02-21T02:30:34;29.95;;;10.35;;
22268;SDS011;11303;50.772;19.670;2024-02-21T02:32:38;27.67;;;10.82;;
22268;SDS011;11303;50.772;19.670;2024-02-21T02:34:40;38.10;;;11.30;;
22268;SDS011;11303;50.772;19.670;2024-02-21T02:36:41;27.35;;;9.88;;
22268;SDS011;11303;50.772;19.670;2024-02-21T02:38:43;27.90;;;11.60;;
22268;SDS011;11303;50.772;19.670;2024-02-21T02:40:44;38.10;;;13.18;;
22268;SDS011;11303;50.772;19.670;2024-02-21T02:42:46;27.70;;;11.48;;
22268;SDS011;11303;50.772;19.670;2024-02-21T02:44:50;29.75;;;11.25;;
22268;SDS011;11303;50.772;19.670;2024-02-21T02:46:51;35.22;;;11.70;;
22268;SDS011;11303;50.772;19.670;2024-02-21T02:48:53;34.22;;;12.98;;
22268;SDS011;11303;50.772;19.670;2024-02-21T02:50:55;32.00;;;12.27;;
22268;SDS011;11303;50.772;19.670;2024-02-21T02:52:57;32.55;;;12.02;;
22268;SDS011;11303;50.772;19.670;2024-02-21T02:54:58;36.45;;;12.13;;
22268;SDS011;11303;50.772;19.670;2024-02-21T02:57:00;33.72;;;12.88;;
22268;SDS011;11303;50.772;19.670;2024-02-21T02:59:02;35.30;;;12.38;;
22268;SDS011;11303;50.772;19.670;2024-02-21T03:01:06;24.48;;;11.68;;
22268;SDS011;11303;50.772;19.670;2024-02-21T03:03:08;28.85;;;12.48;;
22268;SDS011;11303;50.772;19.670;2024-02-21T03:05:19;33.10;;;12.27;;
22268;SDS011;11303;50.772;19.670;2024-02-21T03:07:22;29.70;;;11.63;;
22268;SDS011;11303;50.772;19.670;2024-02-21T03:09:26;26.77;;;11.52;;
22268;SDS011;11303;50.772;19.670;2024-02-21T03:11:27;32.92;;;11.60;;
22268;SDS011;11303;50.772;19.670;2024-02-21T03:13:31;29.73;;;11.02;;
22268;SDS011;11303;50.772;19.670;2024-02-21T03:15:33;29.13;;;11.27;;
22268;SDS011;11303;50.772;19.670;2024-02-21T03:17:34;29.33;;;11.50;;
22268;SDS011;11303;50.772;19.670;2024-02-21T03:19:36;28.75;;;12.60;;
22268;SDS011;11303;50.772;19.670;2024-02-21T03:21:38;32.30;;;11.50;;
22268;SDS011;11303;50.772;19.670;2024-02-21T03:23:40;36.97;;;11.73;;
22268;SDS011;11303;50.772;19.670;2024-02-21T03:25:42;30.95;;;11.98;;
22268;SDS011;11303;50.772;19.670;2024-02-21T03:27:43;31.35;;;13.25;;
22268;SDS011;11303;50.772;19.670;2024-02-21T03:29:45;27.15;;;11.38;;
22268;SDS011;11303;50.772;19.670;2024-02-21T03:31:46;27.85;;;11.50;;
22268;SDS011;11303;50.772;19.670;2024-02-21T03:33:48;27.02;;;11.10;;
22268;SDS011;11303;50.772;19.670;2024-02-21T03:35:49;26.00;;;10.48;;
22268;SDS011;11303;50.772;19.670;2024-02-21T03:37:51;27.23;;;10.75;;
22268;SDS011;11303;50.772;19.670;2024-02-21T03:39:52;27.45;;;12.07;;
22268;SDS011;11303;50.772;19.670;2024-02-21T03:41:54;28.70;;;11.27;;
22268;SDS011;11303;50.772;19.670;2024-02-21T03:43:56;22.70;;;11.43;;
22268;SDS011;11303;50.772;19.670;2024-02-21T03:45:57;29.55;;;11.93;;
22268;SDS011;11303;50.772;19.670;2024-02-21T03:47:59;33.60;;;12.30;;
22268;SDS011;11303;50.772;19.670;2024-02-21T03:50:01;26.88;;;11.13;;
22268;SDS011;11303;50.772;19.670;2024-02-21T03:52:03;26.42;;;11.27;;
22268;SDS011;11303;50.772;19.670;2024-02-21T03:54:05;22.42;;;10.52;;
22268;SDS011;11303;50.772;19.670;2024-02-21T03:56:06;25.95;;;11.18;;
22268;SDS011;11303;50.772;19.670;2024-02-21T03:58:08;31.98;;;10.75;;
22268;SDS011;11303;50.772;19.670;2024-02-21T04:00:10;33.60;;;10.75;;
22268;SDS011;11303;50.772;19.670;2024-02-21T04:02:12;35.80;;;10.95;;
22268;SDS011;11303;50.772;19.670;2024-02-21T04:04:14;22.90;;;9.85;;
22268;SDS011;11303;50.772;19.670;2024-02-21T04:06:16;22.88;;;10.40;;
22268;SDS011;11303;50.772;19.670;2024-02-21T04:08:17;23.02;;;10.40;;
22268;SDS011;11303;50.772;19.670;2024-02-21T04:10:19;34.28;;;11.60;;
22268;SDS011;11303;50.772;19.670;2024-02-21T04:12:20;28.00;;;10.82;;
22268;SDS011;11303;50.772;19.670;2024-02-21T04:14:22;26.25;;;10.52;;
22268;SDS011;11303;50.772;19.670;2024-02-21T04:16:24;26.77;;;10.52;;
22268;SDS011;11303;50.772;19.670;2024-02-21T04:18:25;25.10;;;10.65;;
22268;SDS011;11303;50.772;19.670;2024-02-21T04:20:27;25.80;;;10.25;;
22268;SDS011;11303;50.772;19.670;2024-02-21T04:22:29;29.27;;;10.52;;
22268;SDS011;11303;50.772;19.670;2024-02-21T04:24:30;28.65;;;9.32;;
22268;SDS011;11303;50.772;19.670;2024-02-21T04:26:32;26.25;;;10.52;;
22268;SDS011;11303;50.772;19.670;2024-02-21T04:28:34;25.13;;;10.70;;
22268;SDS011;11303;50.772;19.670;2024-02-21T04:30:35;28.83;;;10.00;;
22268;SDS011;11303;50.772;19.670;2024-02-21T04:32:37;26.17;;;10.55;;
22268;SDS011;11303;50.772;19.670;2024-02-21T04:34:40;26.70;;;10.07;;
22268;SDS011;11303;50.772;19.670;2024-02-21T04:36:42;22.65;;;10.40;;
22268;SDS011;11303;50.772;19.670;2024-02-21T04:38:45;34.60;;;11.30;;
22268;SDS011;11303;50.772;19.670;2024-02-21T04:40:46;31.02;;;10.52;;
22268;SDS011;11303;50.772;19.670;2024-02-21T04:42:48;31.70;;;14.05;;
22268;SDS011;11303;50.772;19.670;2024-02-21T04:44:50;33.75;;;14.85;;
22268;SDS011;11303;50.772;19.670;2024-02-21T04:46:51;24.05;;;12.23;;
22268;SDS011;11303;50.772;19.670;2024-02-21T04:48:53;30.25;;;15.15;;
22268;SDS011;11303;50.772;19.670;2024-02-21T04:50:55;27.42;;;10.35;;
22268;SDS011;11303;50.772;19.670;2024-02-21T04:52:56;29.48;;;12.63;;
22268;SDS011;11303;50.772;19.670;2024-02-21T04:54:58;28.98;;;11.52;;
22268;SDS011;11303;50.772;19.670;2024-02-21T04:56:59;25.83;;;10.23;;
22268;SDS011;11303;50.772;19.670;2024-02-21T04:59:01;29.33;;;11.15;;
22268;SDS011;11303;50.772;19.670;2024-02-21T05:01:02;27.67;;;10.30;;
22268;SDS011;11303;50.772;19.670;2024-02-21T05:03:04;27.58;;;9.65;;
22268;SDS011;11303;50.772;19.670;2024-02-21T05:05:06;36.75;;;11.55;;
22268;SDS011;11303;50.772;19.670;2024-02-21T05:07:08;31.40;;;10.90;;
22268;SDS011;11303;50.772;19.670;2024-02-21T05:09:12;36.83;;;11.73;;
22268;SDS011;11303;50.772;19.670;2024-02-21T05:11:14;30.13;;;10.45;;
22268;SDS011;11303;50.772;19.670;2024-02-21T05:13:16;27.52;;;10.80;;
22268;SDS011;11303;50.772;19.670;2024-02-21T05:15:17;30.77;;;10.38;;
22268;SDS011;11303;50.772;19.670;2024-02-21T05:17:19;34.47;;;11.98;;
22268;SDS011;11303;50.772;19.670;2024-02-21T05:19:21;35.15;;;12.43;;
22268;SDS011;11303;50.772;19.670;2024-02-21T05:21:23;46.65;;;14.40;;
22268;SDS011;11303;50.772;19.670;2024-02-21T05:23:29;33.15;;;13.13;;
22268;SDS011;11303;50.772;19.670;2024-02-21T05:25:31;38.88;;;13.57;;
22268;SDS011;11303;50.772;19.670;2024-02-21T05:27:32;35.22;;;12.43;;
22268;SDS011;11303;50.772;19.670;2024-02-21T05:29:34;39.97;;;12.60;;
22268;SDS011;11303;50.772;19.670;2024-02-21T05:33:53;38.22;;;12.25;;
22268;SDS011;11303;50.772;19.670;2024-02-21T05:35:55;42.65;;;14.27;;
22268;SDS011;11303;50.772;19.670;2024-02-21T05:37:56;35.13;;;14.75;;
22268;SDS011;11303;50.772;19.670;2024-02-21T05:39:58;33.22;;;13.18;;
22268;SDS011;11303;50.772;19.670;2024-02-21T05:42:00;33.05;;;12.52;;
22268;SDS011;11303;50.772;19.670;2024-02-21T05:44:01;41.45;;;13.10;;
22268;SDS011;11303;50.772;19.670;2024-02-21T05:46:03;30.13;;;12.05;;
22268;SDS011;11303;50.772;19.670;2024-02-21T05:48:05;33.75;;;13.43;;
22268;SDS011;11303;50.772;19.670;2024-02-21T05:50:07;32.17;;;13.75;;
22268;SDS011;11303;50.772;19.670;2024-02-21T05:52:10;37.53;;;16.23;;
22268;SDS011;11303;50.772;19.670;2024-02-21T05:54:11;42.30;;;17.80;;
22268;SDS011;11303;50.772;19.670;2024-02-21T05:56:13;30.25;;;15.07;;
22268;SDS011;11303;50.772;19.670;2024-02-21T05:58:15;29.27;;;14.50;;
22268;SDS011;11303;50.772;19.670;2024-02-21T06:00:17;31.52;;;14.20;;
22268;SDS011;11303;50.772;19.670;2024-02-21T06:02:18;41.47;;;16.33;;
22268;SDS011;11303;50.772;19.670;2024-02-21T06:04:21;31.95;;;14.63;;
22268;SDS011;11303;50.772;19.670;2024-02-21T06:06:23;42.38;;;17.33;;
22268;SDS011;11303;50.772;19.670;2024-02-21T06:08:24;46.00;;;25.30;;
22268;SDS011;11303;50.772;19.670;2024-02-21T06:10:26;33.85;;;15.48;;
22268;SDS011;11303;50.772;19.670;2024-02-21T06:12:27;41.17;;;23.45;;
22268;SDS011;11303;50.772;19.670;2024-02-21T06:14:29;55.38;;;28.98;;
22268;SDS011;11303;50.772;19.670;2024-02-21T06:16:30;42.75;;;24.85;;
22268;SDS011;11303;50.772;19.670;2024-02-21T06:18:33;44.10;;;27.33;;
22268;SDS011;11303;50.772;19.670;2024-02-21T06:20:36;51.45;;;32.03;;
22268;SDS011;11303;50.772;19.670;2024-02-21T06:22:40;42.33;;;25.67;;
22268;SDS011;11303;50.772;19.670;2024-02-21T06:24:42;75.88;;;51.53;;
22268;SDS011;11303;50.772;19.670;2024-02-21T06:26:44;50.40;;;35.85;;
22268;SDS011;11303;50.772;19.670;2024-02-21T06:28:46;160.15;;;65.55;;
22268;SDS011;11303;50.772;19.670;2024-02-21T06:30:48;127.53;;;42.10;;
22268;SDS011;11303;50.772;19.670;2024-02-21T06:32:49;381.30;;;117.20;;
22268;SDS011;11303;50.772;19.670;2024-02-21T06:34:51;102.95;;;55.92;;
22268;SDS011;11303;50.772;19.670;2024-02-21T06:36:53;98.65;;;68.30;;
22268;SDS011;11303;50.772;19.670;2024-02-21T06:38:54;127.80;;;52.70;;
22268;SDS011;11303;50.772;19.670;2024-02-21T06:40:56;83.07;;;31.52;;
22268;SDS011;11303;50.772;19.670;2024-02-21T06:43:00;45.90;;;19.17;;
22268;SDS011;11303;50.772;19.670;2024-02-21T06:45:01;27.45;;;11.23;;
22268;SDS011;11303;50.772;19.670;2024-02-21T06:47:03;22.45;;;10.32;;
22268;SDS011;11303;50.772;19.670;2024-02-21T06:49:05;24.90;;;9.43;;
22268;SDS011;11303;50.772;19.670;2024-02-21T06:51:07;20.95;;;9.70;;
22268;SDS011;11303;50.772;19.670;2024-02-21T06:53:08;34.90;;;21.42;;
22268;SDS011;11303;50.772;19.670;2024-02-21T06:55:10;28.35;;;14.73;;
22268;SDS011;11303;50.772;19.670;2024-02-21T06:57:11;24.80;;;9.98;;
22268;SDS011;11303;50.772;19.670;2024-02-21T06:59:13;17.27;;;8.50;;
22268;SDS011;11303;50.772;19.670;2024-02-21T07:01:17;21.80;;;9.10;;
22268;SDS011;11303;50.772;19.670;2024-02-21T07:03:19;32.88;;;13.63;;
22268;SDS011;11303;50.772;19.670;2024-02-21T07:05:21;44.10;;;17.85;;
22268;SDS011;11303;50.772;19.670;2024-02-21T07:07:22;43.33;;;17.00;;
22268;SDS011;11303;50.772;19.670;2024-02-21T07:09:24;45.13;;;15.80;;
22268;SDS011;11303;50.772;19.670;2024-02-21T07:11:26;38.10;;;11.60;;
22268;SDS011;11303;50.772;19.670;2024-02-21T07:13:27;33.70;;;10.82;;
22268;SDS011;11303;50.772;19.670;2024-02-21T07:15:29;46.33;;;15.10;;
22268;SDS011;11303;50.772;19.670;2024-02-21T07:17:32;28.15;;;11.32;;
22268;SDS011;11303;50.772;19.670;2024-02-21T07:19:33;33.45;;;12.85;;
22268;SDS011;11303;50.772;19.670;2024-02-21T07:21:37;44.58;;;16.13;;
22268;SDS011;11303;50.772;19.670;2024-02-21T07:23:43;38.00;;;14.63;;
22268;SDS011;11303;50.772;19.670;2024-02-21T07:25:45;50.25;;;18.90;;
22268;SDS011;11303;50.772;19.670;2024-02-21T07:27:46;69.82;;;23.25;;
22268;SDS011;11303;50.772;19.670;2024-02-21T07:29:48;61.40;;;24.10;;
22268;SDS011;11303;50.772;19.670;2024-02-21T07:31:50;53.90;;;19.30;;
22268;SDS011;11303;50.772;19.670;2024-02-21T07:33:53;54.75;;;26.17;;
22268;SDS011;11303;50.772;19.670;2024-02-21T07:35:55;53.70;;;22.13;;
22268;SDS011;11303;50.772;19.670;2024-02-21T07:37:56;38.28;;;14.70;;
22268;SDS011;11303;50.772;19.670;2024-02-21T07:39:58;58.95;;;24.10;;
22268;SDS011;11303;50.772;19.670;2024-02-21T07:41:59;32.65;;;12.32;;
22268;SDS011;11303;50.772;19.670;2024-02-21T07:44:01;22.70;;;11.13;;
22268;SDS011;11303;50.772;19.670;2024-02-21T07:46:04;35.05;;;13.98;;
22268;SDS011;11303;50.772;19.670;2024-02-21T07:48:06;45.38;;;18.48;;
22268;SDS011;11303;50.772;19.670;2024-02-21T07:50:08;43.08;;;16.48;;
22268;SDS011;11303;50.772;19.670;2024-02-21T07:52:10;33.88;;;14.75;;
22268;SDS011;11303;50.772;19.670;2024-02-21T07:54:11;48.90;;;20.35;;
22268;SDS011;11303;50.772;19.670;2024-02-21T07:56:17;23.17;;;12.80;;
22268;SDS011;11303;50.772;19.670;2024-02-21T07:58:19;53.50;;;28.88;;
22268;SDS011;11303;50.772;19.670;2024-02-21T08:00:20;40.80;;;18.40;;
22268;SDS011;11303;50.772;19.670;2024-02-21T08:02:22;31.85;;;14.48;;
22268;SDS011;11303;50.772;19.670;2024-02-21T08:04:24;30.52;;;13.27;;
22268;SDS011;11303;50.772;19.670;2024-02-21T08:06:26;37.13;;;13.50;;
22268;SDS011;11303;50.772;19.670;2024-02-21T08:08:28;35.97;;;14.85;;
22268;SDS011;11303;50.772;19.670;2024-02-21T08:10:30;30.73;;;11.18;;
22268;SDS011;11303;50.772;19.670;2024-02-21T08:12:31;37.97;;;14.70;;
22268;SDS011;11303;50.772;19.670;2024-02-21T08:14:34;39.53;;;16.63;;
22268;SDS011;11303;50.772;19.670;2024-02-21T08:16:36;36.90;;;15.20;;
22268;SDS011;11303;50.772;19.670;2024-02-21T08:18:38;32.20;;;12.32;;
22268;SDS011;11303;50.772;19.670;2024-02-21T08:20:40;28.65;;;12.52;;
22268;SDS011;11303;50.772;19.670;2024-02-21T08:22:41;25.00;;;10.43;;
22268;SDS011;11303;50.772;19.670;2024-02-21T08:24:43;16.75;;;6.13;;
22268;SDS011;11303;50.772;19.670;2024-02-21T08:26:45;16.65;;;7.18;;
22268;SDS011;11303;50.772;19.670;2024-02-21T08:28:46;19.42;;;9.75;;
22268;SDS011;11303;50.772;19.670;2024-02-21T08:30:48;30.13;;;12.88;;
22268;SDS011;11303;50.772;19.670;2024-02-21T08:32:50;19.08;;;7.90;;
22268;SDS011;11303;50.772;19.670;2024-02-21T08:34:51;15.73;;;5.90;;
22268;SDS011;11303;50.772;19.670;2024-02-21T08:36:53;14.88;;;5.97;;
22268;SDS011;11303;50.772;19.670;2024-02-21T08:38:55;14.80;;;5.25;;
22268;SDS011;11303;50.772;19.670;2024-02-21T08:40:56;22.38;;;9.45;;
22268;SDS011;11303;50.772;19.670;2024-02-21T08:42:58;16.10;;;6.22;;
22268;SDS011;11303;50.772;19.670;2024-02-21T08:44:59;17.02;;;6.03;;
22268;SDS011;11303;50.772;19.670;2024-02-21T08:47:01;17.80;;;6.95;;
22268;SDS011;11303;50.772;19.670;2024-02-21T08:49:05;17.88;;;6.97;;
22268;SDS011;11303;50.772;19.670;2024-02-21T08:51:07;22.13;;;8.00;;
22268;SDS011;11303;50.772;19.670;2024-02-21T08:53:09;16.25;;;5.60;;
22268;SDS011;11303;50.772;19.670;2024-02-21T08:55:11;28.15;;;13.88;;
22268;SDS011;11303;50.772;19.670;2024-02-21T08:57:13;14.23;;;6.88;;
22268;SDS011;11303;50.772;19.670;2024-02-21T08:59:15;14.45;;;6.10;;
22268;SDS011;11303;50.772;19.670;2024-02-21T09:01:16;17.25;;;8.00;;
22268;SDS011;11303;50.772;19.670;2024-02-21T09:03:18;19.77;;;8.70;;
22268;SDS011;11303;50.772;19.670;2024-02-21T09:05:21;20.60;;;8.95;;
22268;SDS011;11303;50.772;19.670;2024-02-21T09:07:23;17.38;;;6.63;;
22268;SDS011;11303;50.772;19.670;2024-02-21T09:09:25;20.98;;;8.98;;
22268;SDS011;11303;50.772;19.670;2024-02-21T09:11:30;32.85;;;16.10;;
22268;SDS011;11303;50.772;19.670;2024-02-21T09:13:33;17.33;;;7.65;;
22268;SDS011;11303;50.772;19.670;2024-02-21T09:15:34;20.70;;;9.48;;
22268;SDS011;11303;50.772;19.670;2024-02-21T09:17:36;19.45;;;8.63;;
22268;SDS011;11303;50.772;19.670;2024-02-21T09:19:38;27.00;;;10.60;;
22268;SDS011;11303;50.772;19.670;2024-02-21T09:21:39;29.17;;;11.27;;
22268;SDS011;11303;50.772;19.670;2024-02-21T09:23:41;25.50;;;9.40;;
22268;SDS011;11303;50.772;19.670;2024-02-21T09:25:43;46.72;;;18.45;;
22268;SDS011;11303;50.772;19.670;2024-02-21T09:27:44;25.92;;;10.68;;
22268;SDS011;11303;50.772;19.670;2024-02-21T09:29:46;29.40;;;9.70;;
22268;SDS011;11303;50.772;19.670;2024-02-21T09:31:48;30.08;;;12.30;;
22268;SDS011;11303;50.772;19.670;2024-02-21T09:33:50;14.05;;;5.85;;
22268;SDS011;11303;50.772;19.670;2024-02-21T09:35:52;15.75;;;5.70;;
22268;SDS011;11303;50.772;19.670;2024-02-21T09:37:54;17.60;;;5.95;;
22268;SDS011;11303;50.772;19.670;2024-02-21T09:39:56;17.60;;;7.75;;
22268;SDS011;11303;50.772;19.670;2024-02-21T09:42:03;16.45;;;7.35;;
22268;SDS011;11303;50.772;19.670;2024-02-21T09:44:08;23.08;;;9.68;;
22268;SDS011;11303;50.772;19.670;2024-02-21T09:46:13;15.98;;;5.90;;
22268;SDS011;11303;50.772;19.670;2024-02-21T09:48:34;24.73;;;9.13;;
22268;SDS011;11303;50.772;19.670;2024-02-21T09:50:39;21.38;;;8.60;;
22268;SDS011;11303;50.772;19.670;2024-02-21T09:52:44;21.92;;;8.68;;
22268;SDS011;11303;50.772;19.670;2024-02-21T09:54:46;18.00;;;5.63;;
22268;SDS011;11303;50.772;19.670;2024-02-21T09:56:50;16.90;;;5.60;;
22268;SDS011;11303;50.772;19.670;2024-02-21T09:58:51;14.80;;;5.80;;
22268;SDS011;11303;50.772;19.670;2024-02-21T10:00:53;23.00;;;6.82;;
22268;SDS011;11303;50.772;19.670;2024-02-21T10:02:54;18.80;;;6.78;;
22268;SDS011;11303;50.772;19.670;2024-02-21T10:04:57;34.92;;;14.52;;
22268;SDS011;11303;50.772;19.670;2024-02-21T10:06:59;29.20;;;11.95;;
22268;SDS011;11303;50.772;19.670;2024-02-21T10:09:02;26.95;;;8.55;;
22268;SDS011;11303;50.772;19.670;2024-02-21T10:11:04;21.85;;;8.40;;
22268;SDS011;11303;50.772;19.670;2024-02-21T10:13:05;21.73;;;10.13;;
22268;SDS011;11303;50.772;19.670;2024-02-21T10:15:07;17.80;;;7.05;;
22268;SDS011;11303;50.772;19.670;2024-02-21T10:17:17;21.88;;;7.15;;
22268;SDS011;11303;50.772;19.670;2024-02-21T10:19:20;15.48;;;6.43;;
22268;SDS011;11303;50.772;19.670;2024-02-21T10:21:22;19.90;;;6.25;;
22268;SDS011;11303;50.772;19.670;2024-02-21T10:23:24;18.23;;;7.43;;
22268;SDS011;11303;50.772;19.670;2024-02-21T10:25:25;16.08;;;6.03;;
22268;SDS011;11303;50.772;19.670;2024-02-21T10:27:27;16.50;;;5.78;;
22268;SDS011;11303;50.772;19.670;2024-02-21T10:29:30;21.48;;;6.20;;
22268;SDS011;11303;50.772;19.670;2024-02-21T10:31:32;19.92;;;5.93;;
22268;SDS011;11303;50.772;19.670;2024-02-21T10:33:34;19.30;;;5.82;;
22268;SDS011;11303;50.772;19.670;2024-02-21T10:35:36;15.85;;;6.38;;
22268;SDS011;11303;50.772;19.670;2024-02-21T10:37:38;16.30;;;5.57;;
22268;SDS011;11303;50.772;19.670;2024-02-21T10:39:40;16.10;;;5.53;;
22268;SDS011;11303;50.772;19.670;2024-02-21T10:41:42;16.63;;;6.90;;
22268;SDS011;11303;50.772;19.670;2024-02-21T10:43:52;17.10;;;5.57;;
22268;SDS011;11303;50.772;19.670;2024-02-21T10:45:56;15.68;;;6.03;;
22268;SDS011;11303;50.772;19.670;2024-02-21T10:48:08;14.32;;;5.47;;
22268;SDS011;11303;50.772;19.670;2024-02-21T10:50:15;16.20;;;6.60;;
22268;SDS011;11303;50.772;19.670;2024-02-21T10:52:32;17.08;;;5.60;;
22268;SDS011;11303;50.772;19.670;2024-02-21T10:54:53;18.27;;;6.18;;
22268;SDS011;11303;50.772;19.670;2024-02-21T10:56:58;19.57;;;7.40;;
22268;SDS011;11303;50.772;19.670;2024-02-21T10:59:04;21.85;;;7.88;;
22268;SDS011;11303;50.772;19.670;2024-02-21T11:01:06;22.95;;;9.00;;
22268;SDS011;11303;50.772;19.670;2024-02-21T11:03:09;15.25;;;5.18;;
22268;SDS011;11303;50.772;19.670;2024-02-21T11:05:11;14.32;;;4.70;;
22268;SDS011;11303;50.772;19.670;2024-02-21T11:07:14;16.67;;;5.63;;
22268;SDS011;11303;50.772;19.670;2024-02-21T11:09:16;13.50;;;4.90;;
22268;SDS011;11303;50.772;19.670;2024-02-21T11:11:18;16.80;;;6.65;;
22268;SDS011;11303;50.772;19.670;2024-02-21T11:13:35;16.42;;;6.78;;
22268;SDS011;11303;50.772;19.670;2024-02-21T11:15:37;18.05;;;6.93;;
22268;SDS011;11303;50.772;19.670;2024-02-21T11:17:38;15.95;;;5.28;;
22268;SDS011;11303;50.772;19.670;2024-02-21T11:19:50;16.13;;;5.47;;
22268;SDS011;11303;50.772;19.670;2024-02-21T11:21:52;16.38;;;5.72;;
22268;SDS011;11303;50.772;19.670;2024-02-21T11:23:55;14.18;;;5.97;;
22268;SDS011;11303;50.772;19.670;2024-02-21T11:26:08;15.98;;;6.30;;
22268;SDS011;11303;50.772;19.670;2024-02-21T11:28:10;17.10;;;6.85;;
22268;SDS011;11303;50.772;19.670;2024-02-21T11:30:13;17.52;;;6.82;;
22268;SDS011;11303;50.772;19.670;2024-02-21T11:34:26;15.85;;;5.35;;
22268;SDS011;11303;50.772;19.670;2024-02-21T11:36:27;17.00;;;6.07;;
22268;SDS011;11303;50.772;19.670;2024-02-21T11:38:29;15.70;;;5.82;;
22268;SDS011;11303;50.772;19.670;2024-02-21T11:40:31;15.10;;;5.05;;
22268;SDS011;11303;50.772;19.670;2024-02-21T11:42:33;16.90;;;5.93;;
22268;SDS011;11303;50.772;19.670;2024-02-21T11:44:35;16.27;;;5.35;;
22268;SDS011;11303;50.772;19.670;2024-02-21T11:46:39;14.98;;;6.13;;
22268;SDS011;11303;50.772;19.670;2024-02-21T11:48:41;14.30;;;5.22;;
22268;SDS011;11303;50.772;19.670;2024-02-21T11:50:52;19.30;;;7.28;;
22268;SDS011;11303;50.772;19.670;2024-02-21T11:52:55;18.30;;;7.07;;
22268;SDS011;11303;50.772;19.670;2024-02-21T11:54:56;16.83;;;6.00;;
22268;SDS011;11303;50.772;19.670;2024-02-21T11:57:06;18.08;;;6.72;;